Time;durP1;ratioP1;P1;durP2;ratioP2;P2;SDS_P1;SDS_P2;PMS_P1;PMS_P2;Temp;Humidity;BMP_temperature;BMP_pressure;BME280_temperature;BME280_humidity;BME280_pressure;Samples;Min_cycle;Max_cycle;Signal;HPM_P1;HPM_P2
2021/09/23 00:00:23;;;;;;;3.80;1.67;;;;;;;20.91;41.66;100319.03;5099142;28;20261;-60
2021/09/23 00:05:27;;;;;;;3.10;1.42;;;;;;;20.77;42.41;100323.03;5113980;28;20050;-60
2021/09/23 00:07:56;;;;;;;4.38;1.98;;;;;;;20.80;42.12;100318.69;5104637;28;20052;-61
2021/09/23 00:10:35;;;;;;;5.28;2.03;;;;;;;20.77;41.81;100308.84;5092978;28;20047;-61
2021/09/23 00:13:03;;;;;;;2.58;1.42;;;;;;;20.67;42.17;100297.97;5102302;27;20055;-61
2021/09/23 00:15:30;;;;;;;5.00;1.52;;;;;;;20.42;42.41;100302.78;5101952;28;20050;-61
2021/09/23 00:18:00;;;;;;;2.47;1.48;;;;;;;20.55;42.85;100307.34;5096708;28;20052;-63
2021/09/23 00:20:28;;;;;;;;;;;;;;;20.52;42.76;100305.19;5103645;28;20407;-63
2021/09/23 00:22:55;;;;;;;4.13;1.80;;;;;;;20.69;42.35;100309.81;5106973;28;20295;-63
2021/09/23 00:25:25;;;;;;;2.45;1.73;;;;;;;20.76;42.36;100312.06;5113731;28;20040;-63
2021/09/23 00:27:53;;;;;;;6.35;1.90;;;;;;;20.75;42.16;100299.03;5104747;28;20048;-64
2021/09/23 00:30:21;;;;;;;3.65;1.73;;;;;;;20.87;41.98;100313.22;5110422;28;20410;-62
2021/09/23 00:32:49;;;;;;;4.07;1.70;;;;;;;20.72;42.42;100311.94;5096046;28;20577;-65
2021/09/23 00:35:17;;;;;;;3.72;1.25;;;;;;;20.70;42.53;100293.63;5091481;28;20040;-67
2021/09/23 00:37:45;;;;;;;6.55;1.75;;;;;;;20.78;42.39;100307.66;5092104;28;20051;-65
2021/09/23 00:40:12;;;;;;;3.05;1.55;;;;;;;20.81;42.17;100303.28;5096549;28;20055;-65
2021/09/23 00:42:41;;;;;;;2.55;1.63;;;;;;;20.82;42.51;100302.13;5092759;28;20052;-65
2021/09/23 00:45:10;;;;;;;7.55;1.80;;;;;;;20.66;42.64;100298.34;5094264;28;20051;-60
2021/09/23 00:47:38;;;;;;;6.60;1.67;;;;;;;20.69;42.92;100311.84;5115625;27;20120;-61
2021/09/23 00:50:06;;;;;;;2.65;1.42;;;;;;;20.75;42.50;100301.88;5098928;27;20339;-60
2021/09/23 00:52:35;;;;;;;2.55;1.42;;;;;;;20.76;42.40;100301.53;5108642;28;20600;-60
2021/09/23 00:55:03;;;;;;;2.85;1.67;;;;;;;20.84;42.26;100305.44;5112956;28;20043;-60
2021/09/23 00:57:30;;;;;;;2.53;1.48;;;;;;;20.83;42.34;100296.09;5103171;28;20059;-61
2021/09/23 00:59:57;;;;;;;3.42;1.52;;;;;;;20.86;42.35;100303.06;5105655;28;20055;-60
2021/09/23 01:02:24;;;;;;;4.13;1.83;;;;;;;20.77;42.49;100279.66;5097154;28;20097;-60
2021/09/23 01:04:52;;;;;;;4.18;1.75;;;;;;;20.80;42.33;100293.13;5118012;27;20119;-60
2021/09/23 01:07:21;;;;;;;2.85;1.50;;;;;;;20.79;42.73;100286.63;5107629;28;20055;-60
2021/09/23 01:09:51;;;;;;;3.63;1.80;;;;;;;20.77;42.86;100283.31;5092430;28;20404;-61
2021/09/23 01:12:20;;;;;;;4.07;1.90;;;;;;;20.65;42.91;100276.81;5096626;28;20051;-61
2021/09/23 01:14:48;;;;;;;6.47;1.75;;;;;;;20.64;42.43;100278.81;5094247;28;20511;-62
2021/09/23 01:17:16;;;;;;;2.00;1.23;;;;;;;20.56;42.60;100265.59;5097475;28;20116;-61
2021/09/23 01:19:44;;;;;;;3.97;1.50;;;;;;;20.56;42.58;100266.44;5104324;28;20050;-62
2021/09/23 01:22:13;;;;;;;2.60;1.23;;;;;;;20.62;42.72;100269.03;5086567;28;20040;-62
2021/09/23 01:24:40;;;;;;;2.38;1.10;;;;;;;20.53;42.65;100258.63;5102199;28;20048;-62
2021/09/23 01:27:09;;;;;;;2.70;1.30;;;;;;;20.59;42.76;100270.56;5094002;28;20040;-61
2021/09/23 01:29:37;;;;;;;2.50;1.05;;;;;;;20.55;42.85;100278.97;5086760;28;20055;-61
2021/09/23 01:32:06;;;;;;;3.67;1.30;;;;;;;20.56;42.63;100276.94;5100066;28;20040;-62
2021/09/23 01:34:34;;;;;;;2.65;1.10;;;;;;;20.57;42.70;100273.75;5091783;28;20132;-63
2021/09/23 01:37:06;;;;;;;6.55;0.98;;;;;;;20.54;42.65;100267.97;5100755;28;20047;-63
2021/09/23 01:39:33;;;;;;;2.13;1.20;;;;;;;20.58;42.77;100281.09;5094108;28;20106;-60
2021/09/23 01:41:59;;;;;;;2.25;1.00;;;;;;;20.67;42.56;100291.47;5097130;28;20086;-60
2021/09/23 01:44:26;;;;;;;2.20;0.70;;;;;;;20.71;42.55;100278.22;5096308;28;20403;-59
2021/09/23 01:46:53;;;;;;;1.80;0.95;;;;;;;20.73;42.56;100270.22;5097880;28;20045;-60
2021/09/23 01:49:20;;;;;;;2.50;0.88;;;;;;;20.61;42.61;100250.34;5107906;28;20070;-60
2021/09/23 01:51:47;;;;;;;1.77;0.93;;;;;;;20.63;42.52;100240.31;5090006;28;20043;-60
2021/09/23 01:54:15;;;;;;;1.42;0.90;;;;;;;20.74;42.32;100243.47;5103740;28;20129;-60
2021/09/23 01:56:41;;;;;;;4.28;0.98;;;;;;;20.74;42.52;100241.47;5101019;28;20039;-60
2021/09/23 01:59:08;;;;;;;1.50;0.90;;;;;;;20.76;42.26;100270.31;5106752;28;20035;-60
2021/09/23 02:01:37;;;;;;;2.22;1.00;;;;;;;20.42;42.75;100259.44;5108443;28;20044;-60
2021/09/23 02:04:04;;;;;;;4.55;1.02;;;;;;;20.59;42.60;100276.25;5106782;28;20052;-60
2021/09/23 02:06:31;;;;;;;2.17;1.20;;;;;;;20.66;42.49;100278.50;5101928;28;20512;-62
2021/09/23 02:08:58;;;;;;;1.15;0.90;;;;;;;20.73;42.58;100268.19;5103643;28;20097;-62
2021/09/23 02:11:25;;;;;;;7.13;1.90;;;;;;;20.73;42.74;100262.50;5097863;28;20052;-61
2021/09/23 02:13:52;;;;;;;2.25;1.27;;;;;;;20.75;42.67;100273.50;5102925;28;20101;-61
2021/09/23 02:16:19;;;;;;;2.63;1.33;;;;;;;20.76;43.05;100269.50;5103737;28;20068;-62
2021/09/23 02:18:46;;;;;;;2.70;0.90;;;;;;;20.81;42.72;100269.25;5101690;28;20044;-62
2021/09/23 02:21:13;;;;;;;5.65;1.13;;;;;;;20.90;42.62;100278.47;5104664;28;20063;-62
2021/09/23 02:23:40;;;;;;;1.45;1.00;;;;;;;20.83;42.51;100269.72;5105680;28;20043;-62
2021/09/23 02:26:07;;;;;;;2.13;1.20;;;;;;;20.70;42.77;100249.03;5101106;28;20048;-62
2021/09/23 02:28:35;;;;;;;3.78;1.20;;;;;;;20.64;42.88;100249.63;5094879;28;20055;-62
2021/09/23 02:31:02;;;;;;;4.30;1.00;;;;;;;20.65;42.90;100265.47;5108683;28;20036;-62
2021/09/23 02:33:29;;;;;;;3.33;0.95;;;;;;;20.58;43.27;100252.72;5096120;28;20052;-63
2021/09/23 02:35:56;;;;;;;2.40;0.80;;;;;;;20.61;43.07;100256.00;5095223;28;20044;-64
2021/09/23 02:38:23;;;;;;;1.52;1.08;;;;;;;20.46;43.29;100244.19;5095018;28;20048;-63
2021/09/23 02:40:50;;;;;;;2.28;1.42;;;;;;;20.59;43.38;100245.84;5102266;28;20483;-64
2021/09/23 02:43:17;;;;;;;2.05;1.25;;;;;;;20.69;43.26;100244.56;5092693;28;20047;-64
2021/09/23 02:45:44;;;;;;;1.40;0.90;;;;;;;20.81;43.09;100249.38;5112477;27;20416;-61
2021/09/23 02:48:11;;;;;;;3.53;1.30;;;;;;;20.73;42.98;100221.97;5101927;27;20453;-63
2021/09/23 02:50:38;;;;;;;2.70;1.00;;;;;;;20.92;42.77;100242.03;5107895;28;20052;-62
2021/09/23 02:53:05;;;;;;;1.65;0.90;;;;;;;20.96;42.92;100230.78;5098946;28;20443;-62
2021/09/23 02:55:32;;;;;;;1.13;0.90;;;;;;;20.99;42.92;100228.06;5103077;28;20395;-61
2021/09/23 02:57:58;;;;;;;1.38;0.82;;;;;;;21.12;42.70;100225.16;5109330;28;20400;-61
2021/09/23 03:00:25;;;;;;;1.33;0.98;;;;;;;21.12;42.77;100237.34;5115960;27;20500;-61
2021/09/23 03:02:52;;;;;;;1.85;0.95;;;;;;;20.92;42.76;100192.94;5126096;27;20411;-61
2021/09/23 03:05:20;;;;;;;3.55;1.00;;;;;;;21.15;42.73;100224.47;5114915;28;20487;-62
2021/09/23 03:07:46;;;;;;;1.95;0.93;;;;;;;21.17;42.79;100227.78;5096640;28;20044;-61
2021/09/23 03:10:13;;;;;;;2.50;0.80;;;;;;;21.17;42.78;100224.94;5095816;28;20047;-61
2021/09/23 03:12:40;;;;;;;1.35;0.82;;;;;;;21.13;42.73;100222.00;5095055;28;20044;-61
2021/09/23 03:15:08;;;;;;;3.13;0.93;;;;;;;21.13;42.75;100218.28;5102155;28;20047;-60
2021/09/23 03:17:34;;;;;;;5.50;1.48;;;;;;;21.08;42.91;100229.91;5104181;28;20043;-62
2021/09/23 03:20:01;;;;;;;2.22;1.00;;;;;;;21.00;42.98;100237.41;5102995;28;20040;-62
2021/09/23 03:22:28;;;;;;;1.35;1.15;;;;;;;20.90;43.25;100238.72;5113137;28;20069;-61
2021/09/23 03:24:55;;;;;;;1.55;0.82;;;;;;;20.77;43.38;100232.22;5110070;28;20487;-60
2021/09/23 03:27:22;;;;;;;1.50;1.05;;;;;;;20.66;43.77;100261.47;5081485;28;20073;-59
2021/09/23 03:29:49;;;;;;;1.02;0.80;;;;;;;20.65;43.83;100259.78;5094965;28;20055;-61
2021/09/23 03:32:16;;;;;;;1.27;1.02;;;;;;;20.64;43.70;100250.47;5102883;28;20048;-60
2021/09/23 03:34:43;;;;;;;1.38;0.80;;;;;;;20.67;43.94;100265.94;5076187;28;20052;-60
2021/09/23 03:37:10;;;;;;;0.90;0.73;;;;;;;20.59;44.22;100260.03;5105827;28;20097;-61
2021/09/23 03:39:37;;;;;;;1.77;0.88;;;;;;;20.60;44.22;100269.38;5114530;28;20419;-61
2021/09/23 03:42:04;;;;;;;2.25;0.90;;;;;;;20.68;44.09;100267.59;5109345;28;20857;-61
2021/09/23 03:44:32;;;;;;;1.95;0.95;;;;;;;20.56;44.29;100257.91;5109562;28;20047;-60
2021/09/23 03:46:58;;;;;;;0.90;0.82;;;;;;;20.57;44.50;100270.91;5103337;28;20091;-60
2021/09/23 03:49:25;;;;;;;1.65;0.90;;;;;;;20.45;44.77;100276.56;5106521;28;20044;-63
2021/09/23 03:51:52;;;;;;;0.95;0.80;;;;;;;20.52;44.60;100276.84;5110804;28;20036;-63
2021/09/23 03:54:19;;;;;;;2.92;1.00;;;;;;;20.57;44.61;100273.75;5105616;27;20433;-60
2021/09/23 03:56:46;;;;;;;2.72;0.90;;;;;;;20.51;44.94;100266.69;5097063;28;20400;-59
2021/09/23 03:59:14;;;;;;;2.75;1.65;;;;;;;20.49;45.32;100274.66;5110061;28;20101;-63
2021/09/23 04:01:40;;;;;;;2.42;0.95;;;;;;;20.55;45.35;100267.63;5103174;28;20553;-59
2021/09/23 04:04:10;;;;;;;1.75;1.10;;;;;;;20.59;45.46;100265.72;5093468;28;20048;-60
2021/09/23 04:06:42;;;;;;;2.10;1.05;;;;;;;20.68;45.39;100259.06;5093297;28;20052;-60
2021/09/23 04:09:13;;;;;;;2.20;1.00;;;;;;;20.78;44.98;100252.91;5095768;28;20067;-60
2021/09/23 04:11:41;;;;;;;5.18;1.05;;;;;;;20.89;45.03;100267.44;5102838;28;20048;-60
2021/09/23 04:14:08;;;;;;;3.63;1.77;;;;;;;20.98;44.74;100260.44;5098522;28;20056;-60
2021/09/23 04:16:35;;;;;;;2.90;1.90;;;;;;;21.02;44.85;100260.56;5106667;27;20047;-60
2021/09/23 04:19:03;;;;;;;2.88;1.23;;;;;;;21.13;44.51;100250.38;5107825;28;20063;-61
2021/09/23 04:21:31;;;;;;;2.22;0.98;;;;;;;21.24;44.49;100250.69;5109906;28;20101;-61
2021/09/23 04:23:58;;;;;;;3.28;1.30;;;;;;;21.16;44.33;100226.94;5102341;28;20052;-59
2021/09/23 04:26:25;;;;;;;3.63;1.20;;;;;;;21.26;44.13;100242.63;5099575;28;20484;-60
2021/09/23 04:28:52;;;;;;;1.80;1.10;;;;;;;21.23;44.13;100244.19;5099717;28;20040;-59
2021/09/23 04:31:19;;;;;;;2.88;1.38;;;;;;;21.24;44.02;100236.50;5098055;28;20768;-60
2021/09/23 04:33:46;;;;;;;3.85;1.30;;;;;;;21.23;44.23;100240.50;5105877;28;20051;-60
2021/09/23 04:36:13;;;;;;;6.10;1.45;;;;;;;21.20;43.82;100233.56;5095124;28;20040;-60
2021/09/23 04:38:40;;;;;;;3.83;1.45;;;;;;;21.18;44.15;100232.25;5124598;27;20050;-60
2021/09/23 04:41:07;;;;;;;2.65;1.30;;;;;;;20.85;44.30;100187.88;5109630;28;20054;-60
2021/09/23 04:43:34;;;;;;;2.05;1.10;;;;;;;20.97;44.44;100229.59;5081139;28;20479;-60
2021/09/23 04:46:01;;;;;;;2.40;1.45;;;;;;;20.80;44.99;100230.69;5101065;28;20403;-59
2021/09/23 04:48:28;;;;;;;3.03;1.48;;;;;;;20.84;44.79;100234.47;5102621;28;20138;-59
2021/09/23 04:50:56;;;;;;;2.30;1.33;;;;;;;20.80;44.69;100225.03;5107040;27;20044;-60
2021/09/23 04:53:22;;;;;;;3.38;1.35;;;;;;;20.84;44.59;100231.63;5102799;28;20047;-58
2021/09/23 04:55:49;;;;;;;5.72;1.20;;;;;;;20.94;44.68;100230.31;5097287;28;20403;-58
2021/09/23 04:58:16;;;;;;;3.55;1.30;;;;;;;20.85;44.54;100224.75;5098411;28;20399;-58
2021/09/23 05:00:43;;;;;;;2.92;1.25;;;;;;;20.91;44.45;100231.03;5108629;28;20040;-59
2021/09/23 05:03:11;;;;;;;5.63;1.40;;;;;;;20.87;44.58;100239.44;5110098;28;20055;-59
2021/09/23 05:05:41;;;;;;;1.83;1.10;;;;;;;20.88;44.59;100224.06;5102609;28;20078;-59
2021/09/23 05:08:08;;;;;;;;;;;;;;;20.88;44.34;100221.22;5098638;27;20040;-59
2021/09/23 05:10:35;;;;;;;2.30;1.45;;;;;;;20.86;44.69;100240.63;5105903;28;19924;-57
2021/09/23 05:13:03;;;;;;;7.60;2.20;;;;;;;20.49;45.26;100175.38;5097252;28;20040;-58
2021/09/23 05:15:31;;;;;;;4.55;1.88;;;;;;;20.68;44.86;100211.66;5108357;27;20082;-64
2021/09/23 05:17:58;;;;;;;6.38;1.45;;;;;;;20.68;45.25;100233.53;5096692;28;20067;-61
2021/09/23 05:20:25;;;;;;;5.90;1.65;;;;;;;20.64;45.00;100249.63;5099330;28;20058;-62
2021/09/23 05:22:52;;;;;;;4.50;1.55;;;;;;;20.63;45.11;100248.00;5091911;28;20395;-60
2021/09/23 05:25:19;;;;;;;2.20;1.30;;;;;;;20.73;44.90;100264.53;5104919;28;20044;-63
2021/09/23 05:27:46;;;;;;;2.40;1.02;;;;;;;20.58;45.00;100257.53;5084835;28;20459;-62
2021/09/23 05:30:13;;;;;;;4.53;1.27;;;;;;;20.65;45.07;100271.13;5107098;28;20043;-61
2021/09/23 05:32:41;;;;;;;2.67;1.27;;;;;;;20.48;45.08;100258.84;5106028;28;20039;-63
2021/09/23 05:35:09;;;;;;;2.67;1.30;;;;;;;20.47;45.63;100262.03;5109955;28;20067;-58
2021/09/23 05:37:36;;;;;;;5.28;1.45;;;;;;;20.52;45.41;100281.69;5107112;28;20035;-62
2021/09/23 05:40:07;;;;;;;2.35;1.20;;;;;;;20.55;45.45;100290.31;5092293;28;20091;-60
2021/09/23 05:42:34;;;;;;;3.72;1.33;;;;;;;20.53;45.54;100281.31;5105105;28;20044;-61
2021/09/23 05:45:02;;;;;;;4.85;1.48;;;;;;;20.58;45.42;100275.41;5106845;28;20044;-61
2021/09/23 05:47:29;;;;;;;1.83;1.20;;;;;;;20.62;45.54;100269.88;5099490;28;20039;-60
2021/09/23 05:49:56;;;;;;;3.65;1.90;;;;;;;20.67;45.49;100260.28;5108924;28;20179;-63
2021/09/23 05:52:23;;;;;;;2.95;1.75;;;;;;;20.63;45.47;100237.47;5081632;28;20047;-61
2021/09/23 05:54:50;;;;;;;2.20;1.30;;;;;;;20.66;45.49;100244.44;5076271;28;20048;-63
2021/09/23 05:57:22;;;;;;;2.58;1.50;;;;;;;20.69;45.58;100260.75;5095842;28;20058;-63
2021/09/23 05:59:50;;;;;;;2.97;1.00;;;;;;;20.63;45.80;100242.31;5093160;28;20067;-61
2021/09/23 06:02:18;;;;;;;1.98;1.30;;;;;;;20.76;45.46;100270.31;5082292;28;20048;-59
2021/09/23 06:04:46;;;;;;;2.88;0.93;;;;;;;20.62;45.63;100269.03;5105636;28;20491;-59
2021/09/23 06:07:13;;;;;;;3.78;1.45;;;;;;;20.55;46.14;100281.81;5097511;28;20047;-59
2021/09/23 06:09:40;;;;;;;1.52;0.93;;;;;;;20.38;46.61;100273.50;5095213;28;20048;-60
2021/09/23 06:12:07;;;;;;;2.13;0.90;;;;;;;20.35;46.79;100277.03;5099404;28;20054;-60
2021/09/23 06:14:35;;;;;;;1.70;1.25;;;;;;;20.36;46.88;100261.66;5102106;28;20063;-60
2021/09/23 06:17:04;;;;;;;1.80;1.15;;;;;;;20.45;46.68;100265.22;5094040;28;20048;-60
2021/09/23 06:19:31;;;;;;;2.97;1.20;;;;;;;20.45;46.68;100268.06;5098590;28;20039;-60
2021/09/23 06:21:58;;;;;;;1.75;1.00;;;;;;;20.58;46.35;100263.22;5107026;28;20043;-59
2021/09/23 06:24:25;;;;;;;1.08;0.95;;;;;;;20.55;46.51;100281.81;5096709;28;20044;-60
2021/09/23 06:26:52;;;;;;;3.28;1.10;;;;;;;20.56;46.40;100277.78;5096906;28;20036;-60
2021/09/23 06:29:19;;;;;;;3.00;1.38;;;;;;;20.58;46.46;100285.91;5094772;28;20047;-59
2021/09/23 06:31:46;;;;;;;3.30;2.03;;;;;;;20.36;46.57;100261.66;5097783;28;20400;-59
2021/09/23 06:34:14;;;;;;;3.38;1.40;;;;;;;20.59;46.50;100284.75;5095476;28;20123;-59
2021/09/23 06:36:40;;;;;;;2.22;1.33;;;;;;;20.59;46.47;100277.06;5102310;28;20047;-60
2021/09/23 06:39:07;;;;;;;2.53;1.42;;;;;;;20.75;45.89;100280.03;5101395;27;20048;-60
2021/09/23 06:41:34;;;;;;;3.70;1.45;;;;;;;20.61;46.08;100258.84;5112707;28;20043;-60
2021/09/23 06:44:04;;;;;;;2.38;1.48;;;;;;;20.77;46.32;100279.66;5111276;28;20043;-59
2021/09/23 06:46:32;;;;;;;3.15;1.35;;;;;;;20.69;46.06;100270.09;5106358;28;20092;-59
2021/09/23 06:48:59;;;;;;;3.13;1.13;;;;;;;20.83;45.85;100286.75;5093644;28;20097;-58
2021/09/23 06:51:27;;;;;;;2.97;1.40;;;;;;;20.72;46.26;100285.59;5104101;28;20499;-59
2021/09/23 06:54:06;;;;;;;5.22;1.98;;;;;;;20.91;46.13;100299.16;5110805;28;20040;-59
2021/09/23 06:56:34;;;;;;;4.75;1.50;;;;;;;20.83;46.05;100293.25;5114230;27;20043;-59
2021/09/23 06:59:01;;;;;;;2.33;1.77;;;;;;;20.87;46.05;100316.06;5107771;28;20040;-59
2021/09/23 07:01:28;;;;;;;3.42;1.98;;;;;;;20.67;46.08;100300.00;5087765;28;20040;-59
2021/09/23 07:03:55;;;;;;;3.25;1.63;;;;;;;20.94;46.13;100360.88;5101147;28;20046;-59
2021/09/23 07:06:22;;;;;;;2.03;1.50;;;;;;;20.74;46.27;100337.94;5102443;28;20126;-58
2021/09/23 07:08:49;;;;;;;4.65;1.70;;;;;;;20.83;46.42;100347.16;5120411;27;20047;-59
2021/09/23 07:11:16;;;;;;;3.38;1.58;;;;;;;20.75;46.55;100341.59;5111104;28;20052;-59
2021/09/23 07:13:44;;;;;;;5.20;1.50;;;;;;;20.80;46.35;100344.22;5094486;28;20093;-59
2021/09/23 07:16:11;;;;;;;2.42;1.63;;;;;;;20.86;46.58;100339.16;5095017;28;20052;-60
2021/09/23 07:18:38;;;;;;;2.40;1.55;;;;;;;20.76;46.01;100318.56;5105129;28;20059;-59
2021/09/23 07:21:07;;;;;;;3.28;1.33;;;;;;;21.04;46.18;100349.06;5112635;28;20451;-59
2021/09/23 07:23:34;;;;;;;3.03;1.33;;;;;;;21.05;46.41;100350.69;5094142;28;20047;-59
2021/09/23 07:26:01;;;;;;;2.97;1.35;;;;;;;21.01;46.67;100350.59;5094324;28;20056;-59
2021/09/23 07:28:29;;;;;;;4.18;1.73;;;;;;;20.80;47.42;100332.88;5105275;28;20097;-61
2021/09/23 07:30:56;;;;;;;2.85;1.50;;;;;;;20.86;47.12;100331.44;5098238;28;20043;-58
2021/09/23 07:33:23;;;;;;;3.90;1.42;;;;;;;20.95;47.09;100326.47;5099743;28;20102;-59
2021/09/23 07:35:51;;;;;;;4.97;1.48;;;;;;;21.00;47.21;100314.06;5093631;28;20051;-59
2021/09/23 07:38:17;;;;;;;3.13;1.73;;;;;;;20.95;47.33;100300.91;5103524;27;20480;-60
2021/09/23 07:40:44;;;;;;;5.20;1.83;;;;;;;20.91;47.33;100305.66;5093843;28;20143;-59
2021/09/23 07:43:11;;;;;;;2.80;1.30;;;;;;;20.98;47.16;100300.19;5097208;28;20047;-59
2021/09/23 07:45:38;;;;;;;4.70;1.73;;;;;;;20.72;47.86;100297.75;5102675;28;20055;-59
2021/09/23 07:48:05;;;;;;;2.97;1.40;;;;;;;20.86;47.82;100300.22;5106422;28;20040;-59
2021/09/23 07:50:32;;;;;;;2.78;1.33;;;;;;;20.91;47.29;100305.66;5113500;27;20039;-60
2021/09/23 07:52:59;;;;;;;3.75;1.92;;;;;;;21.01;47.63;100318.53;5097429;28;20044;-59
2021/09/23 07:55:26;;;;;;;3.17;1.70;;;;;;;20.56;47.89;100257.91;5082231;28;20040;-59
2021/09/23 07:57:53;;;;;;;2.55;1.77;;;;;;;20.91;47.69;100324.69;5094166;28;20093;-59
2021/09/23 08:00:20;;;;;;;3.67;1.77;;;;;;;20.72;48.39;100320.47;5098706;28;20047;-59
2021/09/23 08:02:46;;;;;;;2.88;1.33;;;;;;;20.52;48.35;100312.88;5108058;27;20423;-59
2021/09/23 08:05:15;;;;;;;3.72;1.20;;;;;;;20.67;48.40;100322.69;5106367;28;20036;-60
2021/09/23 08:07:44;;;;;;;2.70;1.50;;;;;;;20.71;47.97;100320.78;5113550;28;20395;-60
2021/09/23 08:10:11;;;;;;;3.57;1.40;;;;;;;20.90;47.71;100315.34;5102236;28;20089;-58
2021/09/23 08:12:39;;;;;;;3.70;1.38;;;;;;;20.71;47.94;100295.25;5106964;28;20051;-59
2021/09/23 08:15:06;;;;;;;6.38;1.65;;;;;;;20.74;48.35;100294.56;5100830;28;20048;-59
2021/09/23 08:17:33;;;;;;;2.85;1.42;;;;;;;20.68;47.86;100278.94;5108662;28;20048;-59
2021/09/23 08:20:00;;;;;;;2.88;1.60;;;;;;;20.73;48.22;100309.94;5103732;28;20040;-59
2021/09/23 08:22:26;;;;;;;5.15;1.83;;;;;;;20.71;48.28;100312.28;5084263;28;20044;-59
2021/09/23 08:24:53;;;;;;;3.08;1.95;;;;;;;20.88;47.97;100312.03;5100542;28;20035;-59
2021/09/23 08:27:20;;;;;;;3.90;1.77;;;;;;;20.98;47.74;100314.38;5113060;28;20047;-59
2021/09/23 08:29:47;;;;;;;2.50;1.60;;;;;;;21.08;47.66;100320.78;5099580;28;20086;-59
2021/09/23 08:32:19;;;;;;;3.85;1.85;;;;;;;21.06;47.45;100309.78;5107148;28;20067;-59
2021/09/23 08:34:47;;;;;;;6.30;2.47;;;;;;;21.22;47.38;100318.38;5107878;28;20054;-59
2021/09/23 08:37:15;;;;;;;9.15;2.83;;;;;;;21.33;47.31;100328.03;5109862;28;20118;-60
2021/09/23 08:39:45;;;;;;;4.45;2.47;;;;;;;21.36;47.23;100321.69;5107911;28;20040;-59
2021/09/23 08:42:13;;;;;;;13.27;3.63;;;;;;;21.40;47.11;100305.59;5098411;28;20040;-60
2021/09/23 08:44:41;;;;;;;9.05;3.90;;;;;;;21.50;47.12;100324.13;5110249;28;20515;-59
2021/09/23 08:47:08;;;;;;;5.55;2.75;;;;;;;21.59;46.88;100318.31;5106337;28;20039;-60
2021/09/23 08:49:35;;;;;;;12.68;3.55;;;;;;;;;;5105189;28;20044;-60
2021/09/23 08:52:02;;;;;;;5.25;2.80;;;;;;;21.74;46.82;100326.91;5092518;28;20048;-60
2021/09/23 08:54:29;;;;;;;7.05;2.70;;;;;;;21.62;46.42;100300.53;5093301;28;20047;-59
2021/09/23 08:57:01;;;;;;;6.50;2.67;;;;;;;21.87;46.40;100341.88;5099674;28;20055;-59
2021/09/23 08:59:30;;;;;;;7.82;2.63;;;;;;;21.90;46.50;100328.94;5103560;28;20042;-59
2021/09/23 09:02:01;;;;;;;7.70;2.67;;;;;;;21.94;46.23;100339.22;5104896;28;20444;-59
2021/09/23 09:04:33;;;;;;;6.20;2.67;;;;;;;21.89;46.05;100328.13;5096299;28;20058;-60
2021/09/23 09:07:02;;;;;;;9.68;3.45;;;;;;;21.88;46.35;100342.69;5096524;27;20063;-59
2021/09/23 09:09:29;;;;;;;6.88;2.80;;;;;;;21.68;46.44;100304.78;5083522;28;20087;-60
2021/09/23 09:12:12;;;;;;;5.90;2.80;;;;;;;22.06;46.08;100357.44;5084875;28;20062;-60
2021/09/23 09:14:42;;;;;;;8.23;3.13;;;;;;;21.95;45.69;100328.69;5104923;28;20134;-60
2021/09/23 09:17:09;;;;;;;8.25;3.38;;;;;;;22.09;45.86;100356.72;5100073;28;20511;-60
2021/09/23 09:19:45;;;;;;;7.68;3.15;;;;;;;22.10;45.74;100362.03;5101266;28;20047;-59
2021/09/23 09:22:20;;;;;;;12.32;3.55;;;;;;;22.13;45.75;100363.31;5094544;28;20052;-60
2021/09/23 09:24:53;;;;;;;6.82;3.33;;;;;;;22.20;45.83;100369.25;5098849;27;22250;-61
2021/09/23 09:27:54;;;;;;;10.68;4.07;;;;;;;22.10;45.70;100352.66;5125530;27;20108;-60
2021/09/23 09:30:22;;;;;;;6.47;2.97;;;;;;;22.08;45.80;100349.34;5055683;28;20039;-59
2021/09/23 09:32:57;;;;;;;10.57;3.10;;;;;;;22.19;45.71;100359.88;5101157;28;20050;-59
2021/09/23 09:35:30;;;;;;;9.68;3.45;;;;;;;22.22;45.64;100352.63;5092574;28;20079;-59
2021/09/23 09:38:00;;;;;;;6.88;3.03;;;;;;;22.28;45.53;100348.31;5096557;28;20047;-59
2021/09/23 09:40:38;;;;;;;10.50;2.80;;;;;;;22.23;45.73;100337.22;5099282;28;20055;-60
2021/09/23 09:43:11;;;;;;;5.43;2.75;;;;;;;22.44;45.02;100340.63;5101971;28;20096;-59
2021/09/23 09:45:38;;;;;;;4.38;1.98;;;;;;;22.60;44.97;100339.81;5117395;28;20048;-60
2021/09/23 09:48:06;;;;;;;4.45;2.28;;;;;;;22.61;44.83;100347.16;5101052;28;20129;-60
2021/09/23 09:50:38;;;;;;;5.45;2.15;;;;;;;22.77;44.73;100338.59;5075734;28;20040;-59
2021/09/23 09:53:08;;;;;;;4.40;2.30;;;;;;;22.93;44.69;100337.41;5101270;28;20040;-59
2021/09/23 09:55:39;;;;;;;4.63;2.45;;;;;;;23.13;43.82;100346.03;5103097;28;20055;-59
2021/09/23 09:58:07;;;;;;;8.32;2.33;;;;;;;23.30;43.43;100345.63;5094986;28;20135;-59
2021/09/23 10:00:36;;;;;;;5.32;3.08;;;;;;;23.66;42.96;100337.88;5080546;28;20040;-59
2021/09/23 10:03:04;;;;;;;4.37;2.27;;;;;;;23.92;42.65;100327.81;5109242;28;20040;-60
2021/09/23 10:05:32;;;;;;;6.38;2.60;;;;;;;24.39;42.03;100338.94;5100507;28;20792;-59
2021/09/23 10:08:00;;;;;;;4.95;2.65;;;;;;;24.82;41.58;100346.25;5101861;28;20410;-59
2021/09/23 10:10:29;;;;;;;10.23;2.90;;;;;;;25.24;41.02;100341.63;5077201;28;20043;-59
2021/09/23 10:13:00;;;;;;;6.43;2.03;;;;;;;25.71;40.69;100341.06;5108792;28;20047;-59
2021/09/23 10:15:28;;;;;;;7.30;2.42;;;;;;;25.98;40.08;100356.16;5088118;28;20040;-59
2021/09/23 10:17:59;;;;;;;5.57;2.20;;;;;;;26.04;39.62;100350.88;5105811;27;20040;-59
2021/09/23 10:20:28;;;;;;;4.53;2.40;;;;;;;26.24;39.58;100323.72;5108833;27;20483;-59
2021/09/23 10:22:56;;;;;;;5.28;2.53;;;;;;;26.44;38.62;100327.19;5104585;27;20035;-59
2021/09/23 10:25:26;;;;;;;8.75;2.42;;;;;;;26.55;38.91;100327.31;5106880;28;20104;-59
2021/09/23 10:27:58;;;;;;;6.00;2.50;;;;;;;26.59;38.39;100322.44;5086126;28;20040;-58
2021/09/23 10:30:37;;;;;;;9.02;2.80;;;;;;;26.68;38.55;100316.41;5104132;28;20088;-59
2021/09/23 10:33:06;;;;;;;6.30;2.45;;;;;;;26.93;38.26;100320.25;5105366;28;20047;-59
2021/09/23 10:35:33;;;;;;;3.75;2.63;;;;;;;27.36;38.13;100319.78;5111285;28;20419;-58
2021/09/23 10:38:05;;;;;;;4.68;2.38;;;;;;;27.93;37.47;100305.69;5103256;28;20047;-59
2021/09/23 10:40:34;;;;;;;5.55;2.97;;;;;;;28.09;36.94;100288.13;5103965;27;20085;-61
2021/09/23 10:43:03;;;;;;;;;;;;;;;28.39;37.68;100302.16;5097323;28;20040;-59
2021/09/23 10:45:31;;;;;;;6.03;2.30;;;;;;;29.04;36.21;100294.38;5084443;28;19927;-59
2021/09/23 10:48:00;;;;;;;6.35;2.42;;;;;;;29.38;35.90;100306.22;5101731;28;20040;-59
2021/09/23 10:50:30;;;;;;;4.95;2.58;;;;;;;29.88;35.11;100287.94;5103275;28;20093;-59
2021/09/23 10:52:59;;;;;;;5.50;2.38;;;;;;;30.34;33.71;100293.47;5102955;27;20044;-59
2021/09/23 10:55:28;;;;;;;4.78;3.05;;;;;;;30.71;33.90;100288.25;5095178;28;20441;-59
2021/09/23 10:57:56;;;;;;;6.90;2.13;;;;;;;31.14;32.84;100282.88;5096838;28;20063;-60
2021/09/23 11:00:29;;;;;;;4.15;2.15;;;;;;;31.11;32.59;100260.66;5096403;28;20048;-59
2021/09/23 11:02:56;;;;;;;3.53;1.88;;;;;;;30.74;32.19;100262.28;5084445;28;20052;-59
2021/09/23 11:05:24;;;;;;;9.50;2.20;;;;;;;30.24;32.75;100267.63;5100792;27;20036;-59
2021/09/23 11:07:52;;;;;;;4.35;2.08;;;;;;;29.96;32.68;100275.16;5096918;28;20054;-59
2021/09/23 11:10:24;;;;;;;5.68;1.80;;;;;;;29.74;32.77;100271.56;5106891;28;20407;-60
2021/09/23 11:12:53;;;;;;;1.70;1.58;;;;;;;29.63;32.14;100253.53;5104675;28;20066;-59
2021/09/23 11:15:23;;;;;;;2.40;1.75;;;;;;;29.57;32.34;100226.41;5109314;28;20052;-59
2021/09/23 11:17:51;;;;;;;1.83;1.35;;;;;;;29.64;32.14;100243.66;5102303;28;20059;-59
2021/09/23 11:20:21;;;;;;;4.47;1.67;;;;;;;29.16;32.32;100226.97;5106568;28;20097;-59
2021/09/23 11:22:54;;;;;;;2.13;1.48;;;;;;;29.06;32.67;100225.78;5104904;28;20044;-59
2021/09/23 11:25:27;;;;;;;1.75;1.30;;;;;;;29.26;32.94;100223.25;5105853;28;20105;-59
2021/09/23 11:27:58;;;;;;;4.28;2.15;;;;;;;29.52;31.94;100208.34;5106880;28;20050;-59
2021/09/23 11:30:32;;;;;;;3.00;1.98;;;;;;;30.62;30.96;100233.97;5104175;28;20494;-58
2021/09/23 11:33:09;;;;;;;4.10;1.75;;;;;;;31.43;30.51;100225.72;5098040;28;20071;-59